Disclaimer

Please do not use the information listed here in-flight or in-navigation, as they are not provided to us by the airports but are provided by volunteers, so they might be outdated.

Search


Regions


Airport information page

Radio informations:
Tower (TWR) - 125.5 MHz
METRO - 390.0 MHz
DOHA INFO - 126.45 MHz
Ground (GND) - 135.5 MHz
Automatic Terminal Information Service (ATIS) - 123.75 MHz
DOHA APP - 121.1 MHz
SOF - 281.45 MHz

Latitude: N/A
Longitude: N/A
Elevation: N/A
Operating hours: N/A
Operating agency: N/A
Timezone: N/A
Fuel: N/A

Recent METARs:
OTBH 211056Z 34012KT 9000 HZ CLR 25/08 A3007 RMK AO2A SLP184 T02520078 $
OTBH 211156Z 31012KT 9000 HZ CLR 25/07 A3006 RMK AO2A SLP181 T02480070 10254 20226 57014 $
OTBH 211156Z 31012KT 9000 HZ CLR 25/07 A3006 RMK AO2A SLP181 T02480070 10254 20226 57014 $

Airport on the map: